createdAt,value
2019-03-20T00:01:31.690Z,100.00
2019-03-20T00:06:54.244Z,100.00
2019-03-20T00:12:12.838Z,100.00
2019-03-20T00:17:33.108Z,100.00
2019-03-20T00:22:51.736Z,100.00
2019-03-20T00:28:10.411Z,100.00
2019-03-20T00:33:29.755Z,100.00
2019-03-20T00:38:50.869Z,100.00
2019-03-20T00:44:10.378Z,100.00
2019-03-20T00:49:29.043Z,100.00
2019-03-20T00:54:50.164Z,100.00
2019-03-20T01:00:19.383Z,100.00
2019-03-20T01:05:42.024Z,100.00
2019-03-20T01:11:01.804Z,100.00
2019-03-20T01:16:22.411Z,100.00
2019-03-20T01:21:41.032Z,100.00
2019-03-20T01:27:00.345Z,100.00
2019-03-20T01:32:20.331Z,100.00
2019-03-20T01:37:43.898Z,100.00
2019-03-20T01:43:02.633Z,100.00
2019-03-20T01:48:23.645Z,100.00
2019-03-20T01:53:43.748Z,100.00
2019-03-20T01:59:04.207Z,100.00
2019-03-20T02:04:23.983Z,98.19
2019-03-20T02:15:03.894Z,98.86
2019-03-20T02:20:22.529Z,99.16
2019-03-20T02:25:41.158Z,98.72
2019-03-20T02:31:03.060Z,98.55
2019-03-20T02:36:43.167Z,97.72
2019-03-20T02:42:03.198Z,97.48
2019-03-20T02:47:23.112Z,96.84
2019-03-20T02:52:42.760Z,96.55
2019-03-20T02:58:20.654Z,96.45
2019-03-20T03:03:39.785Z,97.02
2019-03-20T03:08:58.418Z,96.99
2019-03-20T03:14:24.531Z,95.99
2019-03-20T03:19:47.215Z,96.47
2019-03-20T03:25:08.103Z,96.29
2019-03-20T03:30:28.157Z,96.27
2019-03-20T03:35:48.503Z,96.85
2019-03-20T03:41:06.797Z,96.79
2019-03-20T03:46:28.819Z,96.76
2019-03-20T03:51:50.295Z,96.98
2019-03-20T03:57:10.455Z,97.12
2019-03-20T04:02:29.081Z,97.58
2019-03-20T04:07:49.383Z,98.07
2019-03-20T04:13:08.787Z,97.52
2019-03-20T04:18:27.470Z,97.93
2019-03-20T04:23:46.141Z,98.00
2019-03-20T04:29:05.875Z,98.29
2019-03-20T04:34:25.615Z,98.48
2019-03-20T04:39:44.240Z,97.73
2019-03-20T04:45:02.867Z,97.06
2019-03-20T04:50:26.806Z,97.06
2019-03-20T04:55:46.826Z,97.61
2019-03-20T05:01:07.087Z,98.03
2019-03-20T05:06:28.586Z,98.51
2019-03-20T05:11:47.236Z,98.34
2019-03-20T05:17:10.858Z,97.75
2019-03-20T05:22:33.072Z,96.37
2019-03-20T05:27:51.716Z,95.84
2019-03-20T05:33:11.074Z,94.87
2019-03-20T05:38:33.815Z,93.92
2019-03-20T05:43:52.706Z,92.71
2019-03-20T05:49:16.329Z,92.83
2019-03-20T06:00:24.698Z,92.04
2019-03-20T06:05:46.642Z,88.75
2019-03-20T06:11:06.661Z,88.75
2019-03-20T06:16:25.300Z,86.63
2019-03-20T06:21:45.416Z,81.97
2019-03-20T06:27:05.692Z,76.04
2019-03-20T06:32:25.535Z,81.41
2019-03-20T06:37:45.570Z,83.27
2019-03-20T06:43:04.209Z,83.14
2019-03-20T06:48:25.670Z,83.70
2019-03-20T06:53:45.732Z,83.18
2019-03-20T06:59:31.093Z,82.10
2019-03-20T07:05:13.517Z,83.78
2019-03-20T07:10:52.887Z,84.60
2019-03-20T07:16:13.008Z,84.66
2019-03-20T07:21:31.655Z,79.94
2019-03-20T07:26:50.779Z,80.56
2019-03-20T07:32:16.081Z,80.56
2019-03-20T07:37:37.987Z,80.07
2019-03-20T07:43:08.824Z,80.07
2019-03-20T07:48:22.706Z,76.86
2019-03-20T07:53:41.695Z,77.49
2019-03-20T07:59:19.954Z,73.18
2019-03-20T08:04:39.988Z,75.80
2019-03-20T08:10:03.885Z,73.87
2019-03-20T08:15:22.502Z,72.52
2019-03-20T08:20:45.015Z,72.74
2019-03-20T08:26:17.859Z,71.09
2019-03-20T08:31:34.669Z,71.40
2019-03-20T08:36:53.750Z,67.94
2019-03-20T08:42:13.724Z,68.84
2019-03-20T08:47:35.140Z,65.69
2019-03-20T08:52:53.893Z,64.25
2019-03-20T09:03:31.936Z,62.94
2019-03-20T09:08:54.119Z,64.15
2019-03-20T09:14:33.442Z,62.42
2019-03-20T09:19:51.933Z,61.46
2019-03-20T09:25:19.743Z,61.62
2019-03-20T09:30:39.880Z,62.56
2019-03-20T09:35:58.595Z,63.56
2019-03-20T09:41:17.232Z,63.79
2019-03-20T09:46:37.184Z,65.94
2019-03-20T09:51:58.837Z,65.65
2019-03-20T09:57:17.568Z,63.57
2019-03-20T10:07:55.480Z,62.84
2019-03-20T10:13:14.124Z,63.12
2019-03-20T10:18:32.818Z,62.64
2019-03-20T10:23:52.257Z,63.19
2019-03-20T10:29:10.836Z,64.66
2019-03-20T10:34:39.471Z,62.46
2019-03-20T10:39:54.300Z,59.68
2019-03-20T10:45:33.391Z,61.21
2019-03-20T10:50:54.717Z,61.45
2019-03-20T10:56:13.330Z,60.51
2019-03-20T11:01:51.513Z,62.49
2019-03-20T11:07:17.654Z,62.02
2019-03-20T11:12:30.050Z,63.65
2019-03-20T11:17:52.349Z,62.86
2019-03-20T11:23:13.773Z,62.85
2019-03-20T11:28:33.865Z,61.96
2019-03-20T11:33:53.429Z,62.51
2019-03-20T11:39:12.532Z,63.49
2019-03-20T11:44:31.162Z,61.36
2019-03-20T11:49:51.954Z,62.27
2019-03-20T11:55:12.057Z,60.86
2019-03-20T12:00:30.968Z,62.42
2019-03-20T12:05:51.069Z,60.47
2019-03-20T12:11:10.798Z,58.83
2019-03-20T12:16:33.912Z,58.83
2019-03-20T12:21:56.449Z,59.93
2019-03-20T12:27:15.838Z,59.05
2019-03-20T12:32:38.816Z,58.99
2019-03-20T12:38:13.362Z,60.86
2019-03-20T12:43:22.489Z,59.73
2019-03-20T12:48:41.112Z,60.08
2019-03-20T12:54:01.291Z,59.18
2019-03-20T12:59:39.319Z,60.37
2019-03-20T13:04:57.882Z,60.31
2019-03-20T13:10:21.809Z,59.37
2019-03-20T13:15:42.859Z,57.74
2019-03-20T13:20:59.634Z,59.67
2019-03-20T13:31:45.129Z,59.37
2019-03-20T13:37:06.895Z,60.06
2019-03-20T13:42:25.854Z,59.26
2019-03-20T13:47:44.501Z,61.65
2019-03-20T13:53:03.166Z,60.06
2019-03-20T13:58:21.740Z,60.24
2019-03-20T14:03:41.866Z,61.78
2019-03-20T14:09:06.128Z,59.22
2019-03-20T14:14:21.937Z,61.96
2019-03-20T14:19:42.060Z,59.49
2019-03-20T14:25:02.175Z,59.67
2019-03-20T14:30:48.867Z,59.76
2019-03-20T14:36:08.902Z,61.82
2019-03-20T14:41:28.688Z,62.03
2019-03-20T14:46:54.247Z,60.48
2019-03-20T14:52:13.663Z,59.24
2019-03-20T15:03:13.034Z,60.84
2019-03-20T15:08:31.768Z,60.79
2019-03-20T15:13:51.819Z,62.00
2019-03-20T15:19:12.023Z,60.73
2019-03-20T15:24:30.716Z,61.37
2019-03-20T15:29:50.831Z,62.69
2019-03-20T15:35:09.781Z,62.69
2019-03-20T15:40:29.632Z,62.71
2019-03-20T15:45:48.288Z,61.33
2019-03-20T15:51:06.928Z,61.43
2019-03-20T15:56:45.728Z,62.84
2019-03-20T16:02:07.364Z,62.77
2019-03-20T16:07:29.108Z,61.05
2019-03-20T16:12:49.227Z,61.34
2019-03-20T16:18:10.567Z,62.25
2019-03-20T16:23:29.213Z,61.78
2019-03-20T16:28:49.130Z,62.91
2019-03-20T16:34:08.949Z,63.51
2019-03-20T16:39:49.795Z,63.12
2019-03-20T16:45:14.136Z,64.16
2019-03-20T16:50:37.785Z,64.63
2019-03-20T16:56:00.165Z,65.06
2019-03-20T17:01:21.999Z,65.53
2019-03-20T17:06:40.613Z,65.74
2019-03-20T17:11:59.332Z,66.84
2019-03-20T17:17:25.074Z,66.94
2019-03-20T17:22:45.248Z,66.74
2019-03-20T17:28:05.663Z,67.46
2019-03-20T17:33:25.735Z,68.09
2019-03-20T17:38:44.408Z,68.83
2019-03-20T17:44:05.746Z,68.81
2019-03-20T17:49:24.408Z,70.04
2019-03-20T17:54:44.430Z,70.44
2019-03-20T18:00:15.704Z,70.51
2019-03-20T18:05:34.403Z,71.17
2019-03-20T18:10:52.349Z,71.85
2019-03-20T18:16:10.980Z,72.37
2019-03-20T18:21:32.336Z,73.01
2019-03-20T18:26:54.004Z,74.15
2019-03-20T18:32:32.198Z,75.83
2019-03-20T18:37:51.543Z,76.20
2019-03-20T18:43:11.663Z,77.37
2019-03-20T18:48:31.768Z,79.69
2019-03-20T18:53:50.390Z,80.53
2019-03-20T18:59:10.604Z,81.70
2019-03-20T19:04:29.736Z,82.51
2019-03-20T19:09:48.302Z,82.80
2019-03-20T19:15:13.140Z,83.77
2019-03-20T19:20:32.035Z,84.20
2019-03-20T19:25:53.557Z,84.40
2019-03-20T19:31:20.637Z,84.81
2019-03-20T19:36:48.124Z,84.66
2019-03-20T19:42:06.831Z,84.91
2019-03-20T19:47:26.792Z,86.44
2019-03-20T19:52:51.582Z,86.65
2019-03-20T19:58:11.818Z,87.32
2019-03-20T20:03:30.527Z,87.78
2019-03-20T20:08:51.279Z,88.61
2019-03-20T20:14:14.147Z,89.21
2019-03-20T20:19:32.893Z,89.77
2019-03-20T20:24:53.040Z,89.45
2019-03-20T20:30:11.531Z,91.30
2019-03-20T20:35:33.549Z,91.34
2019-03-20T20:40:53.682Z,92.10
2019-03-20T20:46:13.332Z,92.66
2019-03-20T20:51:32.770Z,93.34
2019-03-20T20:56:52.386Z,92.71
2019-03-20T21:02:12.493Z,94.44
2019-03-20T21:07:34.784Z,95.64
2019-03-20T21:12:57.136Z,95.54
2019-03-20T21:18:13.968Z,95.37
2019-03-20T21:23:41.200Z,95.92
2019-03-20T21:29:39.889Z,96.32
2019-03-20T21:35:38.659Z,95.98
2019-03-20T21:41:31.176Z,96.18
2019-03-20T21:47:30.880Z,96.99
2019-03-20T21:52:51.028Z,97.92
2019-03-20T21:58:30.522Z,98.32
2019-03-20T22:03:50.664Z,99.09
2019-03-20T22:09:10.478Z,99.38
2019-03-20T22:14:32.018Z,99.40
2019-03-20T22:20:29.145Z,99.85
2019-03-20T22:25:57.365Z,99.93
2019-03-20T22:31:16.011Z,100.00
2019-03-20T22:36:36.940Z,100.00
2019-03-20T22:42:04.647Z,100.00
2019-03-20T22:48:02.051Z,100.00
2019-03-20T22:53:41.338Z,100.00
2019-03-20T22:59:01.213Z,100.00
2019-03-20T23:04:24.071Z,100.00
2019-03-20T23:09:42.731Z,100.00
2019-03-20T23:15:01.379Z,100.00
2019-03-20T23:20:26.555Z,100.00
2019-03-20T23:25:47.551Z,100.00
2019-03-20T23:31:25.577Z,100.00
2019-03-20T23:36:45.194Z,100.00
2019-03-20T23:42:04.328Z,100.00
2019-03-20T23:47:27.614Z,100.00
2019-03-20T23:52:46.286Z,100.00
2019-03-20T23:58:05.182Z,100.00
